Time;durP1;ratioP1;P1;durP2;ratioP2;P2;SDS_P1;SDS_P2;PMS_P1;PMS_P2;Temp;Humidity;BMP_temperature;BMP_pressure;BME280_temperature;BME280_humidity;BME280_pressure;Samples;Min_cycle;Max_cycle;Signal;HPM_P1;HPM_P2
2023/05/08 06:56:56;;;;;;;9.10;2.85;;;;;;;;;;4993778;28;20077;-51
2023/05/08 06:59:37;;;;;;;5.03;3.15;;;;;;;;;;4977526;28;20054;-48
2023/05/08 07:02:11;;;;;;;7.05;2.75;;;;;;;;;;4976874;28;20141;-48
2023/05/08 07:04:39;;;;;;;5.40;2.67;;;;;;;;;;4980024;28;20583;-49
2023/05/08 07:07:06;;;;;;;4.78;2.47;;;;;;;;;;4979841;28;20486;-51
2023/05/08 07:09:40;;;;;;;4.30;2.78;;;;;;;;;;4975258;28;20057;-53
2023/05/08 07:12:08;;;;;;;7.30;3.05;;;;;;;;;;4977725;28;20079;-54
2023/05/08 07:14:35;;;;;;;10.00;2.67;;;;;;;;;;4979508;28;20156;-52
2023/05/08 07:17:09;;;;;;;9.35;2.40;;;;;;;;;;4979350;28;20086;-52
2023/05/08 07:19:37;;;;;;;4.82;2.50;;;;;;;;;;4975087;28;20477;-56
2023/05/08 07:22:05;;;;;;;10.57;2.63;;;;;;;;;;4976307;28;20054;-54
2023/05/08 07:24:38;;;;;;;6.15;2.80;;;;;;;;;;4979041;28;20062;-49
2023/05/08 07:27:07;;;;;;;;;;;;;;;;;;4976215;28;20101;-56
2023/05/08 07:29:41;;;;;;;8.52;3.03;;;;;;;;;;4979677;28;20017;-50
2023/05/08 07:32:08;;;;;;;8.02;2.75;;;;;;;;;;4963611;28;20164;-57
2023/05/08 07:34:35;;;;;;;5.25;2.50;;;;;;;;;;4976890;28;20133;-53
2023/05/08 07:37:10;;;;;;;3.63;2.47;;;;;;;;;;4978666;28;20064;-54
2023/05/08 07:39:37;;;;;;;7.85;2.42;;;;;;;;;;4978379;28;20180;-54
2023/05/08 07:42:04;;;;;;;6.43;2.53;;;;;;;;;;4978209;28;20054;-55
2023/05/08 07:44:39;;;;;;;7.65;2.58;;;;;;;;;;4980591;28;20554;-54
2023/05/08 07:47:20;;;;;;;6.55;2.60;;;;;;;;;;4978023;28;20153;-57
2023/05/08 07:49:53;;;;;;;6.97;2.95;;;;;;;;;;4975674;28;20143;-61
2023/05/08 07:52:21;;;;;;;4.80;3.08;;;;;;;;;;4977172;28;20626;-59
2023/05/08 07:54:54;;;;;;;4.43;3.00;;;;;;;;;;4976655;28;20133;-58
2023/05/08 07:57:21;;;;;;;5.10;2.92;;;;;;;;;;4982724;28;20060;-59
2023/05/08 08:00:07;;;;;;;4.28;2.85;;;;;;;;;;5000458;28;20050;-57
2023/05/08 08:02:34;;;;;;;5.90;3.05;;;;;;;;;;4998810;28;20185;-59
2023/05/08 08:05:09;;;;;;;4.63;2.88;;;;;;;;;;4993589;28;20062;-55
2023/05/08 08:07:36;;;;;;;4.68;2.58;;;;;;;;;;4997367;28;20053;-65
2023/05/08 08:10:11;;;;;;;7.00;2.92;;;;;;;;;;4995176;28;20564;-64
2023/05/08 08:12:38;;;;;;;5.05;2.83;;;;;;;;;;4997527;28;20066;-65
2023/05/08 08:15:06;;;;;;;4.35;2.80;;;;;;;;;;4996754;28;20054;-64
2023/05/08 08:17:40;;;;;;;6.43;3.05;;;;;;;;;;4999641;28;20061;-50
2023/05/08 08:20:07;;;;;;;4.57;3.05;;;;;;;;;;4997491;28;20050;-64
2023/05/08 08:22:41;;;;;;;7.07;3.08;;;;;;;;;;4999389;28;20524;-63
2023/05/08 08:25:09;;;;;;;4.07;2.75;;;;;;;;;;4997441;28;20500;-64
2023/05/08 08:27:36;;;;;;;4.38;2.60;;;;;;;;;;4997775;28;21688;-64
2023/05/08 08:30:09;;;;;;;5.63;3.70;;;;;;;;;;4998658;28;20171;-62
2023/05/08 08:32:45;;;;;;;5.32;2.92;;;;;;;;;;4998341;28;20156;-62
2023/05/08 08:35:18;;;;;;;8.77;2.75;;;;;;;;;;4997227;28;20085;-46
2023/05/08 08:37:47;;;;;;;6.47;3.13;;;;;;;;;;4996356;28;20120;-46
2023/05/08 08:40:21;;;;;;;8.07;2.70;;;;;;;;;;4997626;28;20168;-46
2023/05/08 08:42:48;;;;;;;;;;;;;;;;;;4982528;28;20293;-46
2023/05/08 08:45:15;;;;;;;6.15;2.60;;;;;;;;;;4996348;28;19977;-62
2023/05/08 08:47:51;;;;;;;9.95;2.95;;;;;;;;;;4996064;28;20446;-63
2023/05/08 08:50:19;;;;;;;5.82;2.63;;;;;;;;;;4996419;28;20501;-64
2023/05/08 08:53:00;;;;;;;6.65;2.67;;;;;;;;;;4992779;28;20432;-64
2023/05/08 08:55:27;;;;;;;9.98;2.85;;;;;;;;;;4995992;28;20066;-64
2023/05/08 08:58:08;;;;;;;5.30;2.83;;;;;;;;;;4997328;28;21947;-64
2023/05/08 09:00:42;;;;;;;8.10;2.80;;;;;;;;;;4996423;28;20156;-63
2023/05/08 09:03:09;;;;;;;6.72;3.13;;;;;;;;;;4999027;28;20050;-64
2023/05/08 09:05:37;;;;;;;7.88;2.42;;;;;;;;;;4995675;28;20527;-64
2023/05/08 09:08:12;;;;;;;6.68;2.90;;;;;;;;;;4993015;28;20592;-64
2023/05/08 09:10:39;;;;;;;4.68;2.65;;;;;;;;;;4996345;28;20105;-64
2023/05/08 09:13:06;;;;;;;8.35;2.60;;;;;;;;;;4993250;28;20137;-53
2023/05/08 09:15:42;;;;;;;5.88;2.67;;;;;;;;;;4992771;28;20121;-53
2023/05/08 09:18:16;;;;;;;6.38;3.00;;;;;;;;;;4997660;28;20042;-62
2023/05/08 09:20:43;;;;;;;5.07;2.67;;;;;;;;;;4995085;28;20064;-63
2023/05/08 09:23:12;;;;;;;4.30;2.60;;;;;;;;;;4996070;28;20141;-62
2023/05/08 09:25:47;;;;;;;3.88;2.50;;;;;;;;;;4992367;28;20542;-62
2023/05/08 09:28:24;;;;;;;3.95;2.42;;;;;;;;;;4993037;28;20046;-62
2023/05/08 09:31:01;;;;;;;6.15;2.80;;;;;;;;;;4993791;28;20053;-49
2023/05/08 09:33:29;;;;;;;7.50;2.83;;;;;;;;;;4994376;28;20082;-54
2023/05/08 09:36:03;;;;;;;5.88;2.47;;;;;;;;;;4997224;28;20057;-49
2023/05/08 09:38:32;;;;;;;5.25;2.60;;;;;;;;;;4994609;28;20085;-54
2023/05/08 09:41:07;;;;;;;5.28;3.10;;;;;;;;;;4997404;28;20052;-63
2023/05/08 09:43:34;;;;;;;4.53;2.92;;;;;;;;;;4991172;28;20069;-50
2023/05/08 09:46:21;;;;;;;8.20;2.47;;;;;;;;;;4995696;28;20064;-64
2023/05/08 09:48:56;;;;;;;4.65;2.60;;;;;;;;;;4995744;28;20050;-63
2023/05/08 09:51:23;;;;;;;6.38;3.00;;;;;;;;;;4999247;28;20598;-64
2023/05/08 09:53:58;;;;;;;4.90;2.50;;;;;;;;;;4997425;28;20359;-64
2023/05/08 09:56:29;;;;;;;7.95;3.03;;;;;;;;;;4994191;28;20138;-64
2023/05/08 09:59:10;;;;;;;;;;;;;;;;;;4997915;28;20058;-64
2023/05/08 10:01:38;;;;;;;8.40;2.65;;;;;;;;;;4995539;28;20411;-62
2023/05/08 10:04:11;;;;;;;7.70;3.00;;;;;;;;;;4994466;28;20065;-62
2023/05/08 10:06:39;;;;;;;17.38;2.78;;;;;;;;;;4994673;28;20500;-63
2023/05/08 10:09:15;;;;;;;6.88;2.72;;;;;;;;;;4996082;28;20254;-63
2023/05/08 10:11:53;;;;;;;8.63;3.25;;;;;;;;;;4992889;28;20072;-50
2023/05/08 10:14:27;;;;;;;7.38;2.63;;;;;;;;;;4995927;28;20124;-72
2023/05/08 10:17:05;;;;;;;7.25;2.80;;;;;;;;;;4994021;28;20430;-71
2023/05/08 10:19:35;;;;;;;6.72;2.80;;;;;;;;;;4992934;28;20058;-72
2023/05/08 10:22:10;;;;;;;5.65;2.75;;;;;;;;;;4994006;28;20460;-72
2023/05/08 10:24:40;;;;;;;7.22;2.63;;;;;;;;;;4996221;28;20601;-72
2023/05/08 10:27:17;;;;;;;4.22;2.58;;;;;;;;;;4994122;28;20519;-72
2023/05/08 10:29:54;;;;;;;4.45;2.70;;;;;;;;;;4995442;28;20062;-70
2023/05/08 10:32:22;;;;;;;3.88;2.38;;;;;;;;;;4995824;28;20503;-70
2023/05/08 10:34:58;;;;;;;7.07;2.72;;;;;;;;;;4997246;28;20058;-70
2023/05/08 10:37:28;;;;;;;4.45;2.47;;;;;;;;;;4996554;28;20053;-70
2023/05/08 10:40:04;;;;;;;5.70;2.30;;;;;;;;;;4997534;28;20610;-55
2023/05/08 10:42:33;;;;;;;10.23;2.88;;;;;;;;;;4998928;28;20060;-54
2023/05/08 10:45:01;;;;;;;7.03;2.47;;;;;;;;;;4998080;28;20077;-54
2023/05/08 10:47:35;;;;;;;12.07;3.10;;;;;;;;;;4995557;28;20046;-52
2023/05/08 10:50:05;;;;;;;5.40;2.33;;;;;;;;;;4995549;28;20121;-51
2023/05/08 10:52:42;;;;;;;5.22;2.60;;;;;;;;;;4997930;28;20058;-51
2023/05/08 10:55:27;;;;;;;3.58;2.47;;;;;;;;;;4980729;28;20056;-53
2023/05/08 10:57:55;;;;;;;;;;;;;;;;;;4998484;28;20133;-54
2023/05/08 11:00:54;;;;;;;7.45;2.75;;;;;;;;;;5000189;28;19932;-54
2023/05/08 11:03:28;;;;;;;5.43;2.65;;;;;;;;;;4999179;28;20510;-56
2023/05/08 11:06:01;;;;;;;5.72;2.60;;;;;;;;;;4997761;28;20068;-54
2023/05/08 11:08:30;;;;;;;6.40;2.40;;;;;;;;;;4994812;28;20058;-65
2023/05/08 11:11:10;;;;;;;6.18;2.30;;;;;;;;;;4996495;28;20510;-56
2023/05/08 11:13:47;;;;;;;8.43;2.95;;;;;;;;;;4997276;28;20634;-58
2023/05/08 11:16:15;;;;;;;8.57;2.50;;;;;;;;;;4998039;28;20056;-58
2023/05/08 11:18:42;;;;;;;;;;;;;;;;;;4998328;28;20054;-57
2023/05/08 11:21:22;;;;;;;6.82;2.70;;;;;;;;;;4998689;28;20368;-56
2023/05/08 11:23:56;;;;;;;6.18;3.03;;;;;;;;;;4995824;28;20148;-56
2023/05/08 11:26:39;;;;;;;11.68;3.03;;;;;;;;;;4997650;28;20518;-72
2023/05/08 11:29:16;;;;;;;5.53;2.53;;;;;;;;;;4995278;28;20540;-71
2023/05/08 11:31:50;;;;;;;11.13;3.20;;;;;;;;;;4997787;28;20050;-72
2023/05/08 11:34:36;;;;;;;4.28;2.50;;;;;;;;;;4994179;28;20050;-72
2023/05/08 11:37:10;;;;;;;9.00;3.25;;;;;;;;;;4998919;28;20062;-52
2023/05/08 11:39:38;;;;;;;;;;;;;;;;;;4998686;28;20049;-62
2023/05/08 11:42:31;;;;;;;7.60;3.45;;;;;;;;;;4997937;28;20009;-63
2023/05/08 11:45:06;;;;;;;6.25;3.20;;;;;;;;;;4993989;28;20054;-62
2023/05/08 11:47:43;;;;;;;5.82;2.90;;;;;;;;;;4997962;28;20137;-62
2023/05/08 11:50:11;;;;;;;5.53;2.63;;;;;;;;;;4997022;28;20062;-62
2023/05/08 11:52:45;;;;;;;5.97;2.90;;;;;;;;;;4993850;28;20052;-62
2023/05/08 11:55:14;;;;;;;4.22;2.40;;;;;;;;;;4992379;28;20113;-58
2023/05/08 11:57:41;;;;;;;8.75;3.17;;;;;;;;;;5000164;28;20144;-59
2023/05/08 12:00:22;;;;;;;6.18;2.95;;;;;;;;;;4995921;28;20458;-59
2023/05/08 12:02:49;;;;;;;7.40;3.30;;;;;;;;;;4993800;28;20042;-58
2023/05/08 12:05:27;;;;;;;4.63;2.63;;;;;;;;;;4996560;28;20120;-54
2023/05/08 12:07:54;;;;;;;5.38;2.80;;;;;;;;;;4995349;28;22710;-58
2023/05/08 12:10:21;;;;;;;8.02;3.15;;;;;;;;;;4996101;28;20571;-58
2023/05/08 12:12:54;;;;;;;8.10;3.20;;;;;;;;;;4997071;28;20543;-59
2023/05/08 12:15:22;;;;;;;6.30;2.35;;;;;;;;;;4994022;28;20626;-59
2023/05/08 12:18:00;;;;;;;3.47;2.58;;;;;;;;;;4995537;28;20059;-57
2023/05/08 12:20:34;;;;;;;6.70;2.90;;;;;;;;;;4993987;28;20050;-58
2023/05/08 12:23:02;;;;;;;4.00;2.67;;;;;;;;;;4991277;28;20387;-71
2023/05/08 12:25:40;;;;;;;6.45;2.80;;;;;;;;;;4996615;28;20088;-72
2023/05/08 12:28:09;;;;;;;6.07;2.55;;;;;;;;;;4979746;28;20433;-71
2023/05/08 12:30:43;;;;;;;5.72;2.17;;;;;;;;;;4997737;28;20057;-72
2023/05/08 12:33:11;;;;;;;;;;;;;;;;;;4992899;28;20054;-53
2023/05/08 12:35:42;;;;;;;4.53;2.85;;;;;;;;;;4993845;28;21114;-59
2023/05/08 12:38:16;;;;;;;5.53;2.85;;;;;;;;;;4991983;28;20160;-56
2023/05/08 12:40:45;;;;;;;3.60;2.47;;;;;;;;;;4994772;28;20053;-60
2023/05/08 12:43:18;;;;;;;6.00;2.50;;;;;;;;;;4992393;28;20064;-60
2023/05/08 12:45:46;;;;;;;7.25;2.67;;;;;;;;;;4996677;28;20046;-60
2023/05/08 12:48:16;;;;;;;4.32;3.00;;;;;;;;;;4994994;28;20050;-60
2023/05/08 12:50:50;;;;;;;5.55;3.00;;;;;;;;;;4995400;28;20251;-71
2023/05/08 12:53:18;;;;;;;8.20;2.72;;;;;;;;;;4995365;28;20133;-71
2023/05/08 12:55:54;;;;;;;5.60;2.47;;;;;;;;;;4994527;28;20146;-71
2023/05/08 12:58:29;;;;;;;7.00;2.78;;;;;;;;;;4990931;28;20140;-72
2023/05/08 13:01:15;;;;;;;7.05;2.65;;;;;;;;;;4995146;28;21065;-60
2023/05/08 13:03:42;;;;;;;4.28;2.30;;;;;;;;;;4998434;28;20157;-59
2023/05/08 13:06:27;;;;;;;4.30;2.50;;;;;;;;;;4992264;28;20050;-56
2023/05/08 13:08:54;;;;;;;5.25;2.70;;;;;;;;;;4993692;28;20178;-59
2023/05/08 13:11:30;;;;;;;4.30;2.30;;;;;;;;;;4994445;28;20060;-59
2023/05/08 13:13:57;;;;;;;5.32;2.50;;;;;;;;;;4992394;28;20128;-56
2023/05/08 13:16:24;;;;;;;4.60;2.47;;;;;;;;;;4995173;28;20045;-59
2023/05/08 13:18:58;;;;;;;8.18;2.65;;;;;;;;;;4998081;28;20058;-56
2023/05/08 13:21:26;;;;;;;4.32;2.30;;;;;;;;;;4993444;28;20136;-51
2023/05/08 13:23:55;;;;;;;4.65;2.00;;;;;;;;;;4993626;28;20149;-50
2023/05/08 13:26:29;;;;;;;3.33;2.30;;;;;;;;;;4993494;28;20050;-57
2023/05/08 13:28:56;;;;;;;;;;;;;;;;;;4980595;28;20050;-57
2023/05/08 13:31:29;;;;;;;4.00;2.20;;;;;;;;;;4993960;28;21526;-52
2023/05/08 13:33:57;;;;;;;;;;;;;;;;;;4997744;28;20098;-65
2023/05/08 13:36:25;;;;;;;4.95;2.22;;;;;;;;;;4998334;28;20020;-65
2023/05/08 13:38:59;;;;;;;3.78;2.50;;;;;;;;;;4994201;28;20058;-65
2023/05/08 13:41:26;;;;;;;;;;;;;;;;;;4996516;28;20565;-65
2023/05/08 13:43:53;;;;;;;4.90;2.33;;;;;;;;;;4992365;28;20016;-65
2023/05/08 13:46:27;;;;;;;5.28;2.22;;;;;;;;;;4992169;28;20048;-65
2023/05/08 13:48:55;;;;;;;;;;;;;;;;;;4996279;28;20062;-70
2023/05/08 13:51:22;;;;;;;4.85;2.25;;;;;;;;;;4994476;28;19935;-70
2023/05/08 13:53:55;;;;;;;2.88;2.00;;;;;;;;;;4990174;28;20545;-70
2023/05/08 13:56:23;;;;;;;4.07;2.42;;;;;;;;;;4997486;28;20042;-71
2023/05/08 13:59:03;;;;;;;3.78;2.10;;;;;;;;;;4993798;28;20065;-57
2023/05/08 14:01:30;;;;;;;8.95;2.08;;;;;;;;;;4992873;28;20056;-65
2023/05/08 14:04:05;;;;;;;6.18;2.42;;;;;;;;;;4994028;28;20598;-66
2023/05/08 14:06:32;;;;;;;3.88;2.00;;;;;;;;;;4997732;28;20803;-65
2023/05/08 14:08:59;;;;;;;6.22;2.10;;;;;;;;;;5000437;28;20053;-66
2023/05/08 14:11:34;;;;;;;4.97;1.92;;;;;;;;;;4997415;28;20065;-66
2023/05/08 14:14:08;;;;;;;5.82;2.38;;;;;;;;;;4998944;28;20054;-65
2023/05/08 14:16:43;;;;;;;4.28;2.05;;;;;;;;;;4998204;28;20056;-56
2023/05/08 14:19:10;;;;;;;7.90;2.25;;;;;;;;;;4997134;28;20148;-56
2023/05/08 14:21:37;;;;;;;3.13;2.00;;;;;;;;;;4986632;28;20579;-57
2023/05/08 14:24:11;;;;;;;4.72;2.30;;;;;;;;;;4997881;28;20050;-57
2023/05/08 14:26:38;;;;;;;7.80;2.47;;;;;;;;;;4995572;28;20165;-65
2023/05/08 14:29:05;;;;;;;2.58;1.80;;;;;;;;;;4998397;28;20058;-59
2023/05/08 14:31:39;;;;;;;3.70;1.90;;;;;;;;;;4998476;28;20627;-56
2023/05/08 14:34:07;;;;;;;9.05;2.47;;;;;;;;;;4998607;28;20132;-56
2023/05/08 14:36:41;;;;;;;3.85;2.20;;;;;;;;;;4999844;28;20133;-54
2023/05/08 14:39:08;;;;;;;3.60;2.20;;;;;;;;;;4982036;28;20068;-55
2023/05/08 14:41:37;;;;;;;4.10;2.20;;;;;;;;;;4998299;28;20677;-57
2023/05/08 14:44:37;;;;;;;13.20;2.30;;;;;;;;;;4996741;28;20085;-66
2023/05/08 14:47:11;;;;;;;5.50;2.22;;;;;;;;;;5000096;28;20046;-66
2023/05/08 14:49:46;;;;;;;3.33;2.15;;;;;;;;;;4997326;28;21458;-66
2023/05/08 14:52:13;;;;;;;3.65;2.30;;;;;;;;;;4998928;28;20037;-66
2023/05/08 14:54:41;;;;;;;5.15;2.30;;;;;;;;;;4997560;28;20077;-59
2023/05/08 14:57:15;;;;;;;10.90;2.40;;;;;;;;;;4996160;28;20527;-57
2023/05/08 14:59:55;;;;;;;7.32;2.10;;;;;;;;;;4992549;28;20590;-53
2023/05/08 15:02:23;;;;;;;7.35;2.30;;;;;;;;;;4996143;28;20053;-53
2023/05/08 15:04:56;;;;;;;3.72;2.13;;;;;;;;;;4996885;28;20077;-53
2023/05/08 15:07:24;;;;;;;4.13;2.38;;;;;;;;;;4997908;28;20133;-54
2023/05/08 15:09:52;;;;;;;5.43;2.00;;;;;;;;;;4997777;28;20143;-56
2023/05/08 15:12:26;;;;;;;4.40;2.65;;;;;;;;;;4997395;28;20053;-61
2023/05/08 15:14:53;;;;;;;3.05;2.20;;;;;;;;;;4996046;28;20554;-51
2023/05/08 15:17:20;;;;;;;6.60;2.10;;;;;;;;;;4994361;28;20514;-53
2023/05/08 15:19:54;;;;;;;4.68;2.13;;;;;;;;;;4993830;28;20132;-51
2023/05/08 15:22:21;;;;;;;3.13;2.00;;;;;;;;;;4998981;28;20081;-52
2023/05/08 15:25:00;;;;;;;12.85;2.20;;;;;;;;;;4997648;28;20157;-55
2023/05/08 15:27:31;;;;;;;9.02;2.10;;;;;;;;;;4997489;28;20097;-51
2023/05/08 15:30:05;;;;;;;5.88;2.22;;;;;;;;;;4996837;28;20061;-53
2023/05/08 15:32:33;;;;;;;6.13;2.25;;;;;;;;;;4998088;28;20121;-65
2023/05/08 15:35:00;;;;;;;6.55;2.20;;;;;;;;;;4997071;28;20050;-53
2023/05/08 15:37:36;;;;;;;5.55;2.13;;;;;;;;;;4994462;28;20113;-57
2023/05/08 15:40:03;;;;;;;5.30;2.25;;;;;;;;;;4991869;28;20164;-56
2023/05/08 15:42:37;;;;;;;6.00;2.50;;;;;;;;;;4994010;28;20054;-50
2023/05/08 15:45:04;;;;;;;5.05;2.33;;;;;;;;;;4994150;28;20081;-57
2023/05/08 15:47:31;;;;;;;4.28;2.28;;;;;;;;;;4993186;28;20098;-58
2023/05/08 15:50:05;;;;;;;3.72;2.17;;;;;;;;;;4997515;28;20112;-61
2023/05/08 15:52:32;;;;;;;3.45;2.10;;;;;;;;;;4994758;28;20056;-57
2023/05/08 15:55:07;;;;;;;8.73;2.25;;;;;;;;;;4994907;28;20161;-56
2023/05/08 15:57:34;;;;;;;5.05;2.25;;;;;;;;;;4994184;28;20523;-52
2023/05/08 16:00:07;;;;;;;3.40;1.90;;;;;;;;;;4991322;28;20111;-55
2023/05/08 16:02:42;;;;;;;6.57;2.28;;;;;;;;;;4991133;28;20056;-56
2023/05/08 16:05:09;;;;;;;6.68;2.53;;;;;;;;;;4987567;28;20061;-57
2023/05/08 16:07:43;;;;;;;5.15;2.30;;;;;;;;;;4993762;28;20050;-67
2023/05/08 16:10:13;;;;;;;5.25;2.30;;;;;;;;;;4990058;28;20069;-60
2023/05/08 16:12:40;;;;;;;4.47;2.40;;;;;;;;;;4989395;28;20402;-58
2023/05/08 16:15:14;;;;;;;3.85;2.08;;;;;;;;;;4990152;28;20209;-57
2023/05/08 16:17:41;;;;;;;7.20;2.15;;;;;;;;;;4992072;28;20050;-55
2023/05/08 16:20:15;;;;;;;8.93;2.40;;;;;;;;;;4989261;28;20064;-55
2023/05/08 16:22:56;;;;;;;7.30;2.50;;;;;;;;;;4992394;28;20148;-57
2023/05/08 16:25:37;;;;;;;5.50;2.10;;;;;;;;;;4997151;28;20806;-58
2023/05/08 16:28:05;;;;;;;5.13;2.42;;;;;;;;;;4992078;28;20141;-67
2023/05/08 16:30:39;;;;;;;5.43;2.05;;;;;;;;;;4990780;28;20160;-66
2023/05/08 16:33:12;;;;;;;6.00;2.47;;;;;;;;;;4986710;28;20153;-66
2023/05/08 16:35:46;;;;;;;6.60;2.08;;;;;;;;;;4986833;28;22018;-67
2023/05/08 16:38:20;;;;;;;6.90;2.58;;;;;;;;;;4993959;28;20450;-66
2023/05/08 16:40:48;;;;;;;12.65;2.58;;;;;;;;;;4992804;28;20439;-66
2023/05/08 16:43:15;;;;;;;5.10;2.30;;;;;;;;;;4995670;28;20214;-66
2023/05/08 16:45:50;;;;;;;3.53;2.30;;;;;;;;;;4988700;28;20085;-56
2023/05/08 16:48:17;;;;;;;6.80;2.50;;;;;;;;;;4987928;28;20158;-67
2023/05/08 16:50:51;;;;;;;4.07;2.22;;;;;;;;;;4992646;28;20458;-67
2023/05/08 16:53:19;;;;;;;3.33;2.28;;;;;;;;;;4989798;28;20437;-66
2023/05/08 16:55:46;;;;;;;5.68;2.22;;;;;;;;;;4991326;28;20448;-65
2023/05/08 16:58:26;;;;;;;5.30;2.55;;;;;;;;;;4993561;28;20860;-66
2023/05/08 17:00:54;;;;;;;6.78;2.50;;;;;;;;;;4988920;28;20053;-66
2023/05/08 17:03:27;;;;;;;5.80;2.40;;;;;;;;;;4992809;28;20049;-60
2023/05/08 17:05:55;;;;;;;5.60;2.50;;;;;;;;;;4991520;28;20058;-68
2023/05/08 17:08:22;;;;;;;9.65;2.75;;;;;;;;;;4995086;28;21055;-67
2023/05/08 17:10:57;;;;;;;7.10;2.30;;;;;;;;;;4988998;28;20058;-68
2023/05/08 17:13:24;;;;;;;3.17;2.33;;;;;;;;;;4993295;28;20053;-68
2023/05/08 17:15:58;;;;;;;4.85;2.60;;;;;;;;;;4993658;28;20053;-68
2023/05/08 17:18:25;;;;;;;4.10;2.38;;;;;;;;;;4995071;28;20060;-68
2023/05/08 17:20:52;;;;;;;4.75;2.63;;;;;;;;;;4994358;28;20054;-68
2023/05/08 17:23:25;;;;;;;3.88;2.85;;;;;;;;;;4990298;28;20050;-61
2023/05/08 17:25:59;;;;;;;4.78;2.47;;;;;;;;;;4995125;28;20054;-57
2023/05/08 17:28:32;;;;;;;7.00;2.60;;;;;;;;;;4995122;28;20050;-52
2023/05/08 17:31:08;;;;;;;6.10;2.75;;;;;;;;;;4981256;28;20637;-52
2023/05/08 17:33:36;;;;;;;8.70;2.72;;;;;;;;;;4989898;28;20081;-53
2023/05/08 17:36:03;;;;;;;7.30;2.60;;;;;;;;;;4991669;28;20169;-53
2023/05/08 17:38:42;;;;;;;8.02;2.30;;;;;;;;;;4993816;28;20145;-52
2023/05/08 17:41:16;;;;;;;5.28;2.80;;;;;;;;;;4993622;28;20172;-61
2023/05/08 17:43:43;;;;;;;6.82;2.95;;;;;;;;;;4996978;28;20046;-68
2023/05/08 17:46:10;;;;;;;7.90;3.00;;;;;;;;;;4996834;28;20144;-68
2023/05/08 17:48:45;;;;;;;6.22;2.95;;;;;;;;;;4993818;28;20101;-69
2023/05/08 17:51:12;;;;;;;7.88;2.78;;;;;;;;;;4993560;28;20056;-68
2023/05/08 17:53:46;;;;;;;9.57;2.70;;;;;;;;;;4992913;28;20515;-68
2023/05/08 17:56:15;;;;;;;5.55;3.00;;;;;;;;;;4996529;28;20055;-68
2023/05/08 17:58:42;;;;;;;6.38;2.83;;;;;;;;;;4997248;28;20133;-60
2023/05/08 18:01:23;;;;;;;7.72;2.80;;;;;;;;;;4994651;28;20538;-54
2023/05/08 18:03:52;;;;;;;4.93;2.63;;;;;;;;;;4991313;28;20592;-51
2023/05/08 18:06:26;;;;;;;4.63;2.75;;;;;;;;;;4990684;28;20424;-53
2023/05/08 18:08:53;;;;;;;9.63;2.65;;;;;;;;;;4995487;28;20054;-55
2023/05/08 18:11:27;;;;;;;4.40;2.70;;;;;;;;;;4996428;28;20046;-54
2023/05/08 18:13:54;;;;;;;7.03;2.80;;;;;;;;;;4996359;28;20591;-53
2023/05/08 18:16:21;;;;;;;8.55;2.85;;;;;;;;;;4994992;28;21470;-68
2023/05/08 18:18:56;;;;;;;6.38;2.80;;;;;;;;;;4994832;28;20520;-51
2023/05/08 18:21:23;;;;;;;6.20;2.85;;;;;;;;;;4994493;28;20056;-65
2023/05/08 18:23:50;;;;;;;9.98;3.10;;;;;;;;;;4994819;28;20054;-65
2023/05/08 18:26:25;;;;;;;6.47;2.90;;;;;;;;;;4995039;28;20076;-65
2023/05/08 18:28:52;;;;;;;11.45;3.17;;;;;;;;;;4995591;28;20177;-66
2023/05/08 18:31:26;;;;;;;11.77;2.90;;;;;;;;;;4996160;28;20062;-65
2023/05/08 18:33:53;;;;;;;5.13;2.75;;;;;;;;;;4993978;28;20145;-66
2023/05/08 18:36:20;;;;;;;5.38;3.03;;;;;;;;;;4990663;28;20046;-57
2023/05/08 18:38:54;;;;;;;7.20;3.70;;;;;;;;;;4994787;28;20172;-50
2023/05/08 18:41:22;;;;;;;10.48;3.08;;;;;;;;;;4995190;28;20659;-52
2023/05/08 18:43:49;;;;;;;8.90;3.13;;;;;;;;;;4995932;28;20057;-54
2023/05/08 18:46:24;;;;;;;7.43;2.92;;;;;;;;;;4985092;28;20506;-48
2023/05/08 18:48:51;;;;;;;6.35;3.42;;;;;;;;;;4995440;28;20054;-53
2023/05/08 18:51:25;;;;;;;8.93;3.10;;;;;;;;;;4977144;28;20153;-50
2023/05/08 18:53:56;;;;;;;13.40;2.80;;;;;;;;;;4996523;28;20157;-61
2023/05/08 18:56:23;;;;;;;7.55;2.85;;;;;;;;;;4996386;28;20505;-60
2023/05/08 18:59:03;;;;;;;9.43;2.80;;;;;;;;;;4996258;28;20519;-58
2023/05/08 19:01:37;;;;;;;6.72;3.13;;;;;;;;;;4997895;28;20528;-60
2023/05/08 19:04:11;;;;;;;10.18;2.88;;;;;;;;;;4989269;28;20454;-60
2023/05/08 19:06:38;;;;;;;9.77;3.15;;;;;;;;;;4996092;28;20109;-60
2023/05/08 19:09:05;;;;;;;9.02;3.17;;;;;;;;;;4995320;28;20060;-59
2023/05/08 19:11:39;;;;;;;6.45;2.80;;;;;;;;;;4995770;28;20140;-53
2023/05/08 19:14:07;;;;;;;9.57;3.15;;;;;;;;;;4996328;28;20050;-60
2023/05/08 19:16:41;;;;;;;4.75;2.83;;;;;;;;;;4998483;28;20056;-68
2023/05/08 19:19:08;;;;;;;7.72;2.80;;;;;;;;;;4995522;28;20140;-68
2023/05/08 19:21:35;;;;;;;4.93;2.78;;;;;;;;;;4992174;28;20535;-67
2023/05/08 19:24:09;;;;;;;6.75;2.75;;;;;;;;;;4994449;28;20542;-68
2023/05/08 19:26:36;;;;;;;10.85;2.88;;;;;;;;;;4992734;28;20053;-67
2023/05/08 19:29:03;;;;;;;4.60;2.70;;;;;;;;;;4996482;28;20060;-68
2023/05/08 19:31:37;;;;;;;6.50;3.20;;;;;;;;;;4996133;28;20054;-61
2023/05/08 19:34:04;;;;;;;7.22;2.80;;;;;;;;;;4993045;28;20069;-66
2023/05/08 19:36:31;;;;;;;10.30;3.35;;;;;;;;;;4994038;28;20168;-66
2023/05/08 19:39:05;;;;;;;5.07;2.72;;;;;;;;;;4994667;28;20050;-66
2023/05/08 19:41:32;;;;;;;6.63;2.92;;;;;;;;;;4992791;28;20151;-67
2023/05/08 19:43:59;;;;;;;6.18;2.85;;;;;;;;;;4996418;28;20061;-66
2023/05/08 19:46:33;;;;;;;5.05;2.85;;;;;;;;;;4994401;28;20052;-66
2023/05/08 19:49:00;;;;;;;6.97;2.85;;;;;;;;;;4989158;28;20050;-68
2023/05/08 19:51:34;;;;;;;5.32;2.97;;;;;;;;;;4989493;28;20173;-69
2023/05/08 19:54:01;;;;;;;6.65;2.85;;;;;;;;;;4993884;28;20520;-68
2023/05/08 19:56:28;;;;;;;7.88;3.22;;;;;;;;;;4995257;28;20061;-69
2023/05/08 19:59:08;;;;;;;10.25;3.20;;;;;;;;;;4992338;28;20507;-60
2023/05/08 20:01:36;;;;;;;8.13;2.80;;;;;;;;;;4990931;28;20136;-60
2023/05/08 20:04:10;;;;;;;8.07;3.38;;;;;;;;;;4991993;28;21231;-58
2023/05/08 20:06:38;;;;;;;6.88;3.00;;;;;;;;;;4990203;28;20592;-61
2023/05/08 20:09:05;;;;;;;;;;;;;;;;;;4990642;28;20054;-61
2023/05/08 20:11:39;;;;;;;5.72;3.25;;;;;;;;;;4994049;28;20020;-61
2023/05/08 20:14:06;;;;;;;5.95;2.78;;;;;;;;;;4993917;28;20058;-61
2023/05/08 20:16:40;;;;;;;4.47;3.15;;;;;;;;;;4990287;28;20054;-52
2023/05/08 20:19:08;;;;;;;7.03;3.30;;;;;;;;;;4992931;28;20116;-56
2023/05/08 20:21:35;;;;;;;10.13;3.30;;;;;;;;;;4994083;28;20063;-53
2023/05/08 20:24:09;;;;;;;7.05;3.28;;;;;;;;;;4992514;28;20701;-58
2023/05/08 20:26:36;;;;;;;8.88;3.03;;;;;;;;;;4992176;28;20479;-53
2023/05/08 20:29:10;;;;;;;5.70;2.92;;;;;;;;;;4989250;28;20057;-61
2023/05/08 20:31:39;;;;;;;7.03;3.45;;;;;;;;;;4994311;28;20196;-67
2023/05/08 20:34:06;;;;;;;7.43;3.13;;;;;;;;;;4990608;28;20087;-67
2023/05/08 20:36:41;;;;;;;7.53;3.63;;;;;;;;;;4989842;28;20081;-67
2023/05/08 20:39:08;;;;;;;11.73;3.50;;;;;;;;;;4991112;28;20054;-67
2023/05/08 20:41:42;;;;;;;7.30;2.78;;;;;;;;;;4992237;28;20053;-67
2023/05/08 20:44:11;;;;;;;7.25;3.20;;;;;;;;;;4994257;28;20133;-67
2023/05/08 20:46:39;;;;;;;4.53;2.92;;;;;;;;;;4993412;28;20065;-50
2023/05/08 20:49:13;;;;;;;6.25;3.05;;;;;;;;;;4993651;28;20058;-54
2023/05/08 20:51:40;;;;;;;4.15;3.30;;;;;;;;;;4990984;28;20375;-55
2023/05/08 20:54:07;;;;;;;7.88;3.47;;;;;;;;;;4990084;28;20154;-50
2023/05/08 20:56:40;;;;;;;5.97;3.22;;;;;;;;;;4994549;28;20061;-57
2023/05/08 20:59:15;;;;;;;7.80;3.15;;;;;;;;;;4995965;28;20064;-53
2023/05/08 21:01:55;;;;;;;9.65;3.22;;;;;;;;;;4993612;28;20531;-53
2023/05/08 21:04:23;;;;;;;6.45;3.63;;;;;;;;;;4996502;28;20073;-53
2023/05/08 21:06:57;;;;;;;12.32;3.33;;;;;;;;;;4995181;28;20490;-52
2023/05/08 21:09:24;;;;;;;;;;;;;;;;;;4995187;28;20136;-52
2023/05/08 21:11:51;;;;;;;4.47;3.00;;;;;;;;;;4995081;28;19940;-53
2023/05/08 21:14:25;;;;;;;8.82;3.30;;;;;;;;;;4994001;28;20056;-61
2023/05/08 21:16:55;;;;;;;9.85;2.90;;;;;;;;;;4995349;28;20068;-62
2023/05/08 21:19:32;;;;;;;13.02;3.38;;;;;;;;;;4994783;28;20064;-62
2023/05/08 21:21:59;;;;;;;4.75;2.80;;;;;;;;;;4995474;28;20113;-62
2023/05/08 21:24:26;;;;;;;8.07;3.22;;;;;;;;;;4993490;28;20633;-61
2023/05/08 21:27:01;;;;;;;7.18;3.15;;;;;;;;;;4993537;28;20046;-71
2023/05/08 21:29:28;;;;;;;6.35;3.10;;;;;;;;;;4993991;28;20042;-72
2023/05/08 21:32:02;;;;;;;6.80;3.17;;;;;;;;;;4996344;28;21506;-72
2023/05/08 21:34:29;;;;;;;7.78;3.53;;;;;;;;;;4994019;28;20061;-72
2023/05/08 21:36:56;;;;;;;6.00;3.33;;;;;;;;;;4982984;28;20065;-71
2023/05/08 21:39:30;;;;;;;7.45;3.28;;;;;;;;;;4989871;28;20144;-71
2023/05/08 21:41:57;;;;;;;9.88;3.13;;;;;;;;;;4996923;28;20530;-66
2023/05/08 21:44:31;;;;;;;11.30;3.22;;;;;;;;;;4993101;28;20061;-67
2023/05/08 21:46:58;;;;;;;11.13;3.00;;;;;;;;;;4993866;28;20042;-66
2023/05/08 21:49:25;;;;;;;5.40;3.03;;;;;;;;;;4996261;28;20152;-67
2023/05/08 21:51:59;;;;;;;8.80;3.30;;;;;;;;;;4993149;28;20081;-67
2023/05/08 21:54:26;;;;;;;5.72;3.20;;;;;;;;;;4992462;28;20054;-68
2023/05/08 21:57:00;;;;;;;6.57;3.55;;;;;;;;;;4994936;28;20644;-61
2023/05/08 21:59:33;;;;;;;11.48;3.70;;;;;;;;;;4996789;28;20077;-61
2023/05/08 22:02:08;;;;;;;7.80;3.60;;;;;;;;;;4994379;28;20064;-61
2023/05/08 22:04:35;;;;;;;8.73;3.47;;;;;;;;;;4993899;28;20105;-62
2023/05/08 22:07:02;;;;;;;10.05;3.13;;;;;;;;;;4994421;28;20050;-62